sensor_id;sensor_type;location;lat;lon;timestamp;pressure;altitude;pressure_sealevel;temperature;humidity
23446;BME280;11895;48.738;9.320;2023-04-16T00:00:41;98686.44;;;9.08;100.00
23446;BME280;11895;48.738;9.320;2023-04-16T00:03:09;98685.50;;;9.09;100.00
23446;BME280;11895;48.738;9.320;2023-04-16T00:05:37;98681.50;;;9.19;100.00
23446;BME280;11895;48.738;9.320;2023-04-16T00:08:05;98679.16;;;9.11;100.00
23446;BME280;11895;48.738;9.320;2023-04-16T00:10:34;98685.50;;;9.09;100.00
23446;BME280;11895;48.738;9.320;2023-04-16T00:13:01;98684.41;;;9.14;100.00
23446;BME280;11895;48.738;9.320;2023-04-16T00:15:28;98683.66;;;9.11;100.00
23446;BME280;11895;48.738;9.320;2023-04-16T00:17:59;98677.72;;;9.23;100.00
23446;BME280;11895;48.738;9.320;2023-04-16T00:20:26;98683.75;;;9.08;100.00
23446;BME280;11895;48.738;9.320;2023-04-16T00:22:54;98681.44;;;9.00;100.00
23446;BME280;11895;48.738;9.320;2023-04-16T00:25:21;98685.38;;;8.91;100.00
23446;BME280;11895;48.738;9.320;2023-04-16T00:27:49;98685.94;;;8.99;100.00
23446;BME280;11895;48.738;9.320;2023-04-16T00:30:16;98678.53;;;9.05;100.00
23446;BME280;11895;48.738;9.320;2023-04-16T00:32:44;98692.50;;;9.13;100.00
23446;BME280;11895;48.738;9.320;2023-04-16T00:35:12;98688.81;;;9.15;100.00
23446;BME280;11895;48.738;9.320;2023-04-16T00:37:39;98689.91;;;9.11;100.00
23446;BME280;11895;48.738;9.320;2023-04-16T00:40:07;98690.16;;;9.05;100.00
23446;BME280;11895;48.738;9.320;2023-04-16T00:42:34;98683.25;;;9.20;100.00
23446;BME280;11895;48.738;9.320;2023-04-16T00:45:09;98692.25;;;9.19;100.00
23446;BME280;11895;48.738;9.320;2023-04-16T00:47:37;98692.50;;;9.13;100.00
23446;BME280;11895;48.738;9.320;2023-04-16T00:50:06;98681.94;;;9.08;100.00
23446;BME280;11895;48.738;9.320;2023-04-16T00:52:34;98685.66;;;9.26;100.00
23446;BME280;11895;48.738;9.320;2023-04-16T00:55:01;98689.63;;;9.17;100.00
23446;BME280;11895;48.738;9.320;2023-04-16T00:57:29;98691.16;;;9.02;100.00
23446;BME280;11895;48.738;9.320;2023-04-16T00:59:57;98692.09;;;9.01;100.00
23446;BME280;11895;48.738;9.320;2023-04-16T01:02:25;98694.38;;;8.90;100.00
23446;BME280;11895;48.738;9.320;2023-04-16T01:04:53;98692.38;;;9.16;100.00
23446;BME280;11895;48.738;9.320;2023-04-16T01:07:21;98691.31;;;8.99;100.00
23446;BME280;11895;48.738;9.320;2023-04-16T01:09:48;98692.78;;;9.07;100.00
23446;BME280;11895;48.738;9.320;2023-04-16T01:12:15;98693.56;;;9.09;100.00
23446;BME280;11895;48.738;9.320;2023-04-16T01:14:43;98694.66;;;9.05;100.00
23446;BME280;11895;48.738;9.320;2023-04-16T01:17:10;98694.78;;;9.01;100.00
23446;BME280;11895;48.738;9.320;2023-04-16T01:19:38;98701.78;;;9.06;100.00
23446;BME280;11895;48.738;9.320;2023-04-16T01:22:06;98698.25;;;9.04;100.00
23446;BME280;11895;48.738;9.320;2023-04-16T01:24:34;98698.03;;;9.10;100.00
23446;BME280;11895;48.738;9.320;2023-04-16T01:27:01;98705.75;;;9.17;100.00
23446;BME280;11895;48.738;9.320;2023-04-16T01:29:28;98701.63;;;9.09;100.00
23446;BME280;11895;48.738;9.320;2023-04-16T01:31:57;98706.38;;;9.24;100.00
23446;BME280;11895;48.738;9.320;2023-04-16T01:34:28;98707.47;;;9.18;100.00
23446;BME280;11895;48.738;9.320;2023-04-16T01:36:56;98706.88;;;9.12;100.00
23446;BME280;11895;48.738;9.320;2023-04-16T01:39:23;98703.88;;;9.19;100.00
23446;BME280;11895;48.738;9.320;2023-04-16T01:41:51;98705.41;;;9.05;100.00
23446;BME280;11895;48.738;9.320;2023-04-16T01:44:19;98718.38;;;9.15;100.00
23446;BME280;11895;48.738;9.320;2023-04-16T01:46:50;98714.16;;;9.10;100.00
23446;BME280;11895;48.738;9.320;2023-04-16T01:49:18;98711.06;;;9.19;100.00
23446;BME280;11895;48.738;9.320;2023-04-16T01:51:45;98706.50;;;9.21;100.00
23446;BME280;11895;48.738;9.320;2023-04-16T01:54:12;98699.22;;;9.23;100.00
23446;BME280;11895;48.738;9.320;2023-04-16T01:56:39;98699.66;;;9.14;100.00
23446;BME280;11895;48.738;9.320;2023-04-16T01:59:07;98708.78;;;9.10;100.00
23446;BME280;11895;48.738;9.320;2023-04-16T02:01:39;98710.63;;;9.08;100.00
23446;BME280;11895;48.738;9.320;2023-04-16T02:04:12;98698.25;;;9.04;100.00
23446;BME280;11895;48.738;9.320;2023-04-16T02:06:39;98701.22;;;8.97;100.00
23446;BME280;11895;48.738;9.320;2023-04-16T02:09:07;98705.66;;;8.98;100.00
23446;BME280;11895;48.738;9.320;2023-04-16T02:11:36;98705.91;;;9.14;100.00
23446;BME280;11895;48.738;9.320;2023-04-16T02:14:04;98710.41;;;9.14;100.00
23446;BME280;11895;48.738;9.320;2023-04-16T02:16:31;98706.88;;;9.12;100.00
23446;BME280;11895;48.738;9.320;2023-04-16T02:19:08;98703.53;;;9.07;100.00
23446;BME280;11895;48.738;9.320;2023-04-16T02:21:36;98702.88;;;9.22;100.00
23446;BME280;11895;48.738;9.320;2023-04-16T02:24:05;98707.00;;;9.09;100.00
23446;BME280;11895;48.738;9.320;2023-04-16T02:26:33;98701.41;;;9.15;100.00
23446;BME280;11895;48.738;9.320;2023-04-16T02:29:06;98710.72;;;9.06;100.00
23446;BME280;11895;48.738;9.320;2023-04-16T02:31:40;98709.38;;;9.16;100.00
23446;BME280;11895;48.738;9.320;2023-04-16T02:34:11;98708.50;;;9.16;100.00
23446;BME280;11895;48.738;9.320;2023-04-16T02:36:40;98710.34;;;8.93;100.00
23446;BME280;11895;48.738;9.320;2023-04-16T02:39:07;98716.38;;;8.98;100.00
23446;BME280;11895;48.738;9.320;2023-04-16T02:41:35;98712.63;;;9.02;100.00
23446;BME280;11895;48.738;9.320;2023-04-16T02:44:04;98712.38;;;9.09;100.00
23446;BME280;11895;48.738;9.320;2023-04-16T02:46:32;98713.03;;;8.93;100.00
23446;BME280;11895;48.738;9.320;2023-04-16T02:48:59;98717.22;;;9.00;100.00
23446;BME280;11895;48.738;9.320;2023-04-16T02:51:28;98723.00;;;9.12;100.00
23446;BME280;11895;48.738;9.320;2023-04-16T02:53:56;98718.84;;;9.05;100.00
23446;BME280;11895;48.738;9.320;2023-04-16T02:56:23;98716.84;;;9.10;100.00
23446;BME280;11895;48.738;9.320;2023-04-16T02:58:50;98724.75;;;9.13;100.00
23446;BME280;11895;48.738;9.320;2023-04-16T03:01:18;98722.03;;;9.14;100.00
23446;BME280;11895;48.738;9.320;2023-04-16T03:03:45;98718.72;;;9.28;100.00
23446;BME280;11895;48.738;9.320;2023-04-16T03:06:13;98726.78;;;9.28;100.00
23446;BME280;11895;48.738;9.320;2023-04-16T03:08:41;98726.38;;;9.17;100.00
23446;BME280;11895;48.738;9.320;2023-04-16T03:11:08;98727.88;;;9.24;100.00
23446;BME280;11895;48.738;9.320;2023-04-16T03:13:35;98718.47;;;9.14;100.00
23446;BME280;11895;48.738;9.320;2023-04-16T03:16:03;98722.44;;;9.25;100.00
23446;BME280;11895;48.738;9.320;2023-04-16T03:18:30;98718.97;;;9.01;100.00
23446;BME280;11895;48.738;9.320;2023-04-16T03:20:58;98719.53;;;9.10;100.00
23446;BME280;11895;48.738;9.320;2023-04-16T03:23:25;98720.13;;;9.16;100.00
23446;BME280;11895;48.738;9.320;2023-04-16T03:26:22;98730.31;;;9.08;100.00
23446;BME280;11895;48.738;9.320;2023-04-16T03:28:49;98730.81;;;9.18;100.00
23446;BME280;11895;48.738;9.320;2023-04-16T03:31:17;98731.91;;;9.14;100.00
23446;BME280;11895;48.738;9.320;2023-04-16T03:33:45;98742.00;;;9.07;100.00
23446;BME280;11895;48.738;9.320;2023-04-16T03:36:13;98735.88;;;9.04;100.00
23446;BME280;11895;48.738;9.320;2023-04-16T03:38:40;98742.75;;;8.89;100.00
23446;BME280;11895;48.738;9.320;2023-04-16T03:41:08;98736.97;;;8.99;100.00
23446;BME280;11895;48.738;9.320;2023-04-16T03:43:36;98742.34;;;8.99;100.00
23446;BME280;11895;48.738;9.320;2023-04-16T03:46:04;98739.41;;;9.06;100.00
23446;BME280;11895;48.738;9.320;2023-04-16T03:48:32;98743.75;;;9.08;100.00
23446;BME280;11895;48.738;9.320;2023-04-16T03:50:59;98744.78;;;9.06;100.00
23446;BME280;11895;48.738;9.320;2023-04-16T03:53:27;98748.63;;;9.20;100.00
23446;BME280;11895;48.738;9.320;2023-04-16T03:55:55;98749.38;;;9.24;100.00
23446;BME280;11895;48.738;9.320;2023-04-16T03:58:23;98742.94;;;9.06;100.00
23446;BME280;11895;48.738;9.320;2023-04-16T04:00:54;98744.88;;;9.02;100.00
23446;BME280;11895;48.738;9.320;2023-04-16T04:03:23;98743.63;;;8.89;100.00
23446;BME280;11895;48.738;9.320;2023-04-16T04:05:53;98741.44;;;8.99;100.00
23446;BME280;11895;48.738;9.320;2023-04-16T04:08:27;98746.28;;;8.91;100.00
23446;BME280;11895;48.738;9.320;2023-04-16T04:10:54;98746.41;;;9.10;100.00
23446;BME280;11895;48.738;9.320;2023-04-16T04:13:23;98753.63;;;9.08;100.00
23446;BME280;11895;48.738;9.320;2023-04-16T04:15:51;98754.25;;;8.92;100.00
23446;BME280;11895;48.738;9.320;2023-04-16T04:18:20;98753.28;;;8.95;100.00
23446;BME280;11895;48.738;9.320;2023-04-16T04:20:47;98754.25;;;8.92;100.00
23446;BME280;11895;48.738;9.320;2023-04-16T04:23:18;98751.38;;;8.75;100.00
23446;BME280;11895;48.738;9.320;2023-04-16T04:25:46;98759.53;;;8.95;100.00
23446;BME280;11895;48.738;9.320;2023-04-16T04:28:17;98761.06;;;8.79;100.00
23446;BME280;11895;48.738;9.320;2023-04-16T04:30:56;98759.88;;;8.86;100.00
23446;BME280;11895;48.738;9.320;2023-04-16T04:33:31;98773.88;;;8.94;100.00
23446;BME280;11895;48.738;9.320;2023-04-16T04:36:02;98776.38;;;8.99;100.00
23446;BME280;11895;48.738;9.320;2023-04-16T04:38:41;98770.81;;;9.04;100.00
23446;BME280;11895;48.738;9.320;2023-04-16T04:41:19;98770.63;;;9.08;100.00
23446;BME280;11895;48.738;9.320;2023-04-16T04:44:00;98771.91;;;8.99;100.00
23446;BME280;11895;48.738;9.320;2023-04-16T04:46:40;98780.44;;;8.87;100.00
23446;BME280;11895;48.738;9.320;2023-04-16T04:49:14;98775.50;;;8.98;100.00
23446;BME280;11895;48.738;9.320;2023-04-16T04:51:49;98779.38;;;8.91;100.00
23446;BME280;11895;48.738;9.320;2023-04-16T04:54:32;98777.19;;;9.01;100.00
23446;BME280;11895;48.738;9.320;2023-04-16T04:57:04;98796.13;;;8.98;100.00
23446;BME280;11895;48.738;9.320;2023-04-16T04:59:44;98800.13;;;9.10;100.00
23446;BME280;11895;48.738;9.320;2023-04-16T05:02:26;98793.06;;;9.07;100.00
23446;BME280;11895;48.738;9.320;2023-04-16T05:04:59;98796.06;;;8.99;100.00
23446;BME280;11895;48.738;9.320;2023-04-16T05:07:38;98798.63;;;9.02;100.00
23446;BME280;11895;48.738;9.320;2023-04-16T05:10:08;98805.00;;;9.00;100.00
23446;BME280;11895;48.738;9.320;2023-04-16T05:12:39;98808.28;;;8.85;100.00
23446;BME280;11895;48.738;9.320;2023-04-16T05:15:10;98813.63;;;8.86;100.00
23446;BME280;11895;48.738;9.320;2023-04-16T05:17:43;98810.09;;;8.84;100.00
23446;BME280;11895;48.738;9.320;2023-04-16T05:20:25;98814.59;;;8.84;100.00
23446;BME280;11895;48.738;9.320;2023-04-16T05:23:08;98822.38;;;8.91;100.00
23446;BME280;11895;48.738;9.320;2023-04-16T05:25:44;98823.13;;;8.95;100.00
23446;BME280;11895;48.738;9.320;2023-04-16T05:28:15;98821.63;;;9.10;100.00
23446;BME280;11895;48.738;9.320;2023-04-16T05:31:02;98831.13;;;8.96;100.00
23446;BME280;11895;48.738;9.320;2023-04-16T05:33:45;98825.16;;;8.88;100.00
23446;BME280;11895;48.738;9.320;2023-04-16T05:36:17;98829.47;;;8.92;100.00
23446;BME280;11895;48.738;9.320;2023-04-16T05:39:00;98834.97;;;8.89;100.00
23446;BME280;11895;48.738;9.320;2023-04-16T05:41:36;98833.81;;;8.96;100.00
23446;BME280;11895;48.738;9.320;2023-04-16T05:44:08;98838.91;;;8.81;100.00
23446;BME280;11895;48.738;9.320;2023-04-16T05:46:46;98840.47;;;8.86;100.00
23446;BME280;11895;48.738;9.320;2023-04-16T05:49:32;98843.16;;;8.86;100.00
23446;BME280;11895;48.738;9.320;2023-04-16T05:52:05;98845.94;;;8.83;100.00
23446;BME280;11895;48.738;9.320;2023-04-16T05:54:36;98845.34;;;8.98;100.00
23446;BME280;11895;48.738;9.320;2023-04-16T05:57:22;98845.25;;;9.01;100.00
23446;BME280;11895;48.738;9.320;2023-04-16T05:59:57;98853.28;;;9.01;100.00
23446;BME280;11895;48.738;9.320;2023-04-16T06:02:36;98855.97;;;9.01;100.00
23446;BME280;11895;48.738;9.320;2023-04-16T06:05:11;98856.41;;;8.91;100.00
23446;BME280;11895;48.738;9.320;2023-04-16T06:07:55;98857.97;;;8.96;100.00
23446;BME280;11895;48.738;9.320;2023-04-16T06:10:32;98857.44;;;9.10;100.00
23446;BME280;11895;48.738;9.320;2023-04-16T06:13:10;98861.25;;;9.05;100.00
23446;BME280;11895;48.738;9.320;2023-04-16T06:15:47;98854.69;;;9.12;100.00
23446;BME280;11895;48.738;9.320;2023-04-16T06:18:31;98863.31;;;9.20;100.00
23446;BME280;11895;48.738;9.320;2023-04-16T06:21:07;98871.13;;;9.26;100.00
23446;BME280;11895;48.738;9.320;2023-04-16T06:23:50;98869.78;;;8.92;100.00
23446;BME280;11895;48.738;9.320;2023-04-16T06:26:24;98865.59;;;8.85;100.00
23446;BME280;11895;48.738;9.320;2023-04-16T06:28:59;98864.72;;;9.07;100.00
23446;BME280;11895;48.738;9.320;2023-04-16T06:31:41;98862.38;;;9.21;100.00
23446;BME280;11895;48.738;9.320;2023-04-16T06:34:28;98865.63;;;9.29;100.00
23446;BME280;11895;48.738;9.320;2023-04-16T06:37:14;98861.13;;;9.30;100.00
23446;BME280;11895;48.738;9.320;2023-04-16T06:39:47;98871.63;;;9.36;100.00
23446;BME280;11895;48.738;9.320;2023-04-16T06:42:27;98866.81;;;9.22;100.00
23446;BME280;11895;48.738;9.320;2023-04-16T06:45:12;98870.25;;;9.25;100.00
23446;BME280;11895;48.738;9.320;2023-04-16T06:47:47;98869.81;;;9.14;100.00
23446;BME280;11895;48.738;9.320;2023-04-16T06:50:29;98879.44;;;9.20;100.00
23446;BME280;11895;48.738;9.320;2023-04-16T06:53:17;98876.44;;;9.06;100.00
23446;BME280;11895;48.738;9.320;2023-04-16T06:55:56;98879.13;;;9.06;100.00
23446;BME280;11895;48.738;9.320;2023-04-16T06:58:30;98874.63;;;9.28;100.00
23446;BME280;11895;48.738;9.320;2023-04-16T07:01:25;98880.13;;;9.25;100.00
23446;BME280;11895;48.738;9.320;2023-04-16T07:04:26;98877.00;;;9.14;100.00
23446;BME280;11895;48.738;9.320;2023-04-16T07:06:57;98887.28;;;9.02;100.00
23446;BME280;11895;48.738;9.320;2023-04-16T07:09:35;98892.88;;;9.20;100.00
23446;BME280;11895;48.738;9.320;2023-04-16T07:12:08;98891.00;;;9.22;100.00
23446;BME280;11895;48.738;9.320;2023-04-16T07:14:46;98887.75;;;9.14;100.00
23446;BME280;11895;48.738;9.320;2023-04-16T07:17:16;98889.34;;;9.18;100.00
23446;BME280;11895;48.738;9.320;2023-04-16T07:19:50;98894.72;;;9.18;100.00
23446;BME280;11895;48.738;9.320;2023-04-16T07:22:24;98884.91;;;8.95;100.00
23446;BME280;11895;48.738;9.320;2023-04-16T07:24:55;98904.16;;;9.06;100.00
23446;BME280;11895;48.738;9.320;2023-04-16T07:27:24;98898.34;;;8.95;100.00
23446;BME280;11895;48.738;9.320;2023-04-16T07:29:57;98890.56;;;9.11;100.00
23446;BME280;11895;48.738;9.320;2023-04-16T07:32:35;98901.38;;;9.31;100.00
23446;BME280;11895;48.738;9.320;2023-04-16T07:35:12;98898.25;;;9.20;100.00
23446;BME280;11895;48.738;9.320;2023-04-16T07:37:41;98900.63;;;9.27;100.00
23446;BME280;11895;48.738;9.320;2023-04-16T07:40:13;98909.94;;;9.41;100.00
23446;BME280;11895;48.738;9.320;2023-04-16T07:42:57;98904.16;;;9.30;100.00
23446;BME280;11895;48.738;9.320;2023-04-16T07:45:32;98905.63;;;9.37;100.00
23446;BME280;11895;48.738;9.320;2023-04-16T07:48:03;98908.91;;;9.45;100.00
23446;BME280;11895;48.738;9.320;2023-04-16T07:50:44;98911.94;;;9.36;100.00
23446;BME280;11895;48.738;9.320;2023-04-16T07:53:20;98912.56;;;9.42;100.00
23446;BME280;11895;48.738;9.320;2023-04-16T07:55:55;98911.03;;;9.59;100.00
23446;BME280;11895;48.738;9.320;2023-04-16T07:58:23;98911.28;;;9.52;100.00
23446;BME280;11895;48.738;9.320;2023-04-16T08:00:59;98918.72;;;9.68;100.00
23446;BME280;11895;48.738;9.320;2023-04-16T08:03:33;98922.78;;;9.78;100.00
23446;BME280;11895;48.738;9.320;2023-04-16T08:06:28;98926.84;;;10.09;100.00
23446;BME280;11895;48.738;9.320;2023-04-16T08:08:58;98927.47;;;9.73;100.00
23446;BME280;11895;48.738;9.320;2023-04-16T08:11:42;98923.22;;;9.67;100.00
23446;BME280;11895;48.738;9.320;2023-04-16T08:14:15;98930.53;;;9.64;100.00
23446;BME280;11895;48.738;9.320;2023-04-16T08:16:46;98929.84;;;9.59;100.00
23446;BME280;11895;48.738;9.320;2023-04-16T08:19:20;98942.66;;;9.74;100.00
23446;BME280;11895;48.738;9.320;2023-04-16T08:21:49;98946.03;;;9.79;100.00
23446;BME280;11895;48.738;9.320;2023-04-16T08:24:23;98950.94;;;9.91;100.00
23446;BME280;11895;48.738;9.320;2023-04-16T08:27:05;98949.16;;;9.90;100.00
23446;BME280;11895;48.738;9.320;2023-04-16T08:29:55;98948.78;;;9.99;100.00
23446;BME280;11895;48.738;9.320;2023-04-16T08:32:25;98960.38;;;9.79;100.00
23446;BME280;11895;48.738;9.320;2023-04-16T08:35:10;98966.53;;;10.03;100.00
23446;BME280;11895;48.738;9.320;2023-04-16T08:37:50;98968.06;;;10.11;100.00
23446;BME280;11895;48.738;9.320;2023-04-16T08:40:31;98970.16;;;10.24;100.00
23446;BME280;11895;48.738;9.320;2023-04-16T08:43:13;98966.66;;;10.00;100.00
23446;BME280;11895;48.738;9.320;2023-04-16T08:46:11;98975.34;;;9.87;100.00
23446;BME280;11895;48.738;9.320;2023-04-16T08:48:51;98972.19;;;9.97;100.00
23446;BME280;11895;48.738;9.320;2023-04-16T08:57:58;98976.94;;;10.75;100.00
23446;BME280;11895;48.738;9.320;2023-04-16T09:00:40;98982.25;;;10.77;100.00
23446;BME280;11895;48.738;9.320;2023-04-16T09:03:19;98976.44;;;10.86;100.00
23446;BME280;11895;48.738;9.320;2023-04-16T09:05:59;98983.56;;;11.07;100.00
23446;BME280;11895;48.738;9.320;2023-04-16T09:08:35;98978.84;;;11.13;100.00
23446;BME280;11895;48.738;9.320;2023-04-16T09:11:16;98981.25;;;10.79;100.00
23446;BME280;11895;48.738;9.320;2023-04-16T09:14:02;98995.47;;;11.02;100.00
23446;BME280;11895;48.738;9.320;2023-04-16T09:16:51;98983.56;;;10.87;100.00
23446;BME280;11895;48.738;9.320;2023-04-16T09:19:29;98993.50;;;10.66;100.00
23446;BME280;11895;48.738;9.320;2023-04-16T09:22:14;98994.72;;;10.59;100.00
23446;BME280;11895;48.738;9.320;2023-04-16T09:24:46;99005.72;;;10.33;100.00
23446;BME280;11895;48.738;9.320;2023-04-16T09:27:20;99003.78;;;10.36;100.00
23446;BME280;11895;48.738;9.320;2023-04-16T09:29:52;98996.03;;;10.49;100.00
23446;BME280;11895;48.738;9.320;2023-04-16T09:32:27;99002.38;;;10.68;100.00
23446;BME280;11895;48.738;9.320;2023-04-16T09:35:05;99000.03;;;10.61;100.00
23446;BME280;11895;48.738;9.320;2023-04-16T09:37:39;99005.69;;;10.54;100.00
23446;BME280;11895;48.738;9.320;2023-04-16T09:40:26;99010.06;;;10.57;100.00
23446;BME280;11895;48.738;9.320;2023-04-16T09:43:13;99017.25;;;10.36;100.00
23446;BME280;11895;48.738;9.320;2023-04-16T09:45:53;99010.03;;;10.15;100.00
23446;BME280;11895;48.738;9.320;2023-04-16T09:48:33;99013.81;;;10.33;100.00
23446;BME280;11895;48.738;9.320;2023-04-16T09:51:01;99018.88;;;10.40;100.00
23446;BME280;11895;48.738;9.320;2023-04-16T09:53:30;99018.94;;;10.17;100.00
23446;BME280;11895;48.738;9.320;2023-04-16T09:56:01;99024.78;;;10.28;100.00
23446;BME280;11895;48.738;9.320;2023-04-16T09:58:34;99029.66;;;10.40;100.00
23446;BME280;11895;48.738;9.320;2023-04-16T10:03:39;99021.97;;;10.51;100.00
23446;BME280;11895;48.738;9.320;2023-04-16T10:06:17;99017.53;;;10.50;100.00
23446;BME280;11895;48.738;9.320;2023-04-16T10:08:49;99028.72;;;10.62;100.00
23446;BME280;11895;48.738;9.320;2023-04-16T10:11:18;99027.00;;;10.39;100.00
23446;BME280;11895;48.738;9.320;2023-04-16T10:13:47;99034.91;;;10.21;100.00
23446;BME280;11895;48.738;9.320;2023-04-16T10:16:15;99025.88;;;10.22;100.00
23446;BME280;11895;48.738;9.320;2023-04-16T10:18:44;99035.88;;;10.19;100.00
23446;BME280;11895;48.738;9.320;2023-04-16T10:21:13;99031.38;;;10.19;100.00
23446;BME280;11895;48.738;9.320;2023-04-16T10:23:42;99037.84;;;10.37;100.00
23446;BME280;11895;48.738;9.320;2023-04-16T10:26:10;99045.41;;;10.49;100.00
23446;BME280;11895;48.738;9.320;2023-04-16T10:28:38;99037.78;;;10.39;100.00
23446;BME280;11895;48.738;9.320;2023-04-16T10:31:08;99034.53;;;10.93;100.00
23446;BME280;11895;48.738;9.320;2023-04-16T10:33:39;99043.94;;;11.03;100.00
23446;BME280;11895;48.738;9.320;2023-04-16T10:36:12;99038.94;;;11.15;100.00
23446;BME280;11895;48.738;9.320;2023-04-16T10:38:50;99042.78;;;11.48;100.00
23446;BME280;11895;48.738;9.320;2023-04-16T10:41:21;99047.53;;;11.04;100.00
23446;BME280;11895;48.738;9.320;2023-04-16T10:43:50;99042.72;;;11.11;100.00
23446;BME280;11895;48.738;9.320;2023-04-16T10:46:25;99048.72;;;11.17;100.00
23446;BME280;11895;48.738;9.320;2023-04-16T10:49:31;99045.25;;;11.34;100.00
23446;BME280;11895;48.738;9.320;2023-04-16T10:52:14;99038.50;;;10.64;100.00
23446;BME280;11895;48.738;9.320;2023-04-16T10:54:46;99045.47;;;10.68;100.00
23446;BME280;11895;48.738;9.320;2023-04-16T10:57:18;99043.34;;;10.76;100.00
23446;BME280;11895;48.738;9.320;2023-04-16T10:59:47;99047.47;;;10.85;100.00
23446;BME280;11895;48.738;9.320;2023-04-16T11:02:17;99046.38;;;11.10;100.00
23446;BME280;11895;48.738;9.320;2023-04-16T11:04:48;99051.94;;;11.25;100.00
23446;BME280;11895;48.738;9.320;2023-04-16T11:07:19;99045.38;;;11.12;100.00
23446;BME280;11895;48.738;9.320;2023-04-16T11:10:00;99050.41;;;10.99;100.00
23446;BME280;11895;48.738;9.320;2023-04-16T11:12:38;99047.16;;;11.12;100.00
23446;BME280;11895;48.738;9.320;2023-04-16T11:15:16;99053.69;;;11.26;100.00
23446;BME280;11895;48.738;9.320;2023-04-16T11:17:50;99053.66;;;11.07;100.00
23446;BME280;11895;48.738;9.320;2023-04-16T11:20:24;99054.16;;;11.16;100.00
23446;BME280;11895;48.738;9.320;2023-04-16T11:22:56;99054.59;;;11.27;100.00
23446;BME280;11895;48.738;9.320;2023-04-16T11:25:29;99061.44;;;11.34;100.00
23446;BME280;11895;48.738;9.320;2023-04-16T11:27:57;99058.19;;;11.26;100.00
23446;BME280;11895;48.738;9.320;2023-04-16T11:30:35;99053.78;;;11.04;100.00
23446;BME280;11895;48.738;9.320;2023-04-16T11:33:10;99060.91;;;11.05;100.00
23446;BME280;11895;48.738;9.320;2023-04-16T11:35:39;99055.94;;;10.96;100.00
23446;BME280;11895;48.738;9.320;2023-04-16T11:38:07;99058.44;;;10.60;100.00
23446;BME280;11895;48.738;9.320;2023-04-16T11:40:35;99063.19;;;10.53;100.00
23446;BME280;11895;48.738;9.320;2023-04-16T11:43:13;99062.13;;;10.58;100.00
23446;BME280;11895;48.738;9.320;2023-04-16T11:46:04;99071.13;;;10.57;100.00
23446;BME280;11895;48.738;9.320;2023-04-16T11:48:53;99070.63;;;10.89;100.00
23446;BME280;11895;48.738;9.320;2023-04-16T11:51:29;99064.97;;;10.95;100.00
23446;BME280;11895;48.738;9.320;2023-04-16T11:53:57;99061.19;;;10.99;100.00
23446;BME280;11895;48.738;9.320;2023-04-16T11:56:29;99067.44;;;11.20;100.00
23446;BME280;11895;48.738;9.320;2023-04-16T11:59:12;99060.59;;;11.13;100.00
23446;BME280;11895;48.738;9.320;2023-04-16T12:01:52;99074.38;;;11.26;100.00
23446;BME280;11895;48.738;9.320;2023-04-16T12:04:26;99066.97;;;11.11;100.00
23446;BME280;11895;48.738;9.320;2023-04-16T12:07:10;99071.16;;;11.18;100.00
23446;BME280;11895;48.738;9.320;2023-04-16T12:09:41;99072.47;;;10.89;100.00
23446;BME280;11895;48.738;9.320;2023-04-16T12:12:30;99072.38;;;11.11;100.00
23446;BME280;11895;48.738;9.320;2023-04-16T12:14:59;99076.91;;;11.49;100.00
23446;BME280;11895;48.738;9.320;2023-04-16T12:17:34;99067.97;;;11.28;100.00
23446;BME280;11895;48.738;9.320;2023-04-16T12:20:14;99076.81;;;11.12;100.00
23446;BME280;11895;48.738;9.320;2023-04-16T12:22:48;99083.03;;;10.93;100.00
23446;BME280;11895;48.738;9.320;2023-04-16T12:25:16;99077.91;;;10.87;100.00
23446;BME280;11895;48.738;9.320;2023-04-16T12:27:53;99089.78;;;11.03;100.00
23446;BME280;11895;48.738;9.320;2023-04-16T12:30:24;99081.41;;;11.10;100.00
23446;BME280;11895;48.738;9.320;2023-04-16T12:33:15;99083.56;;;11.22;100.00
23446;BME280;11895;48.738;9.320;2023-04-16T12:35:44;99085.19;;;10.85;100.00
23446;BME280;11895;48.738;9.320;2023-04-16T12:38:12;99080.47;;;11.11;100.00
23446;BME280;11895;48.738;9.320;2023-04-16T12:40:41;99083.03;;;10.93;100.00
23446;BME280;11895;48.738;9.320;2023-04-16T12:43:09;99080.66;;;10.86;100.00
23446;BME280;11895;48.738;9.320;2023-04-16T12:45:40;99079.91;;;10.82;100.00
23446;BME280;11895;48.738;9.320;2023-04-16T12:48:07;99078.44;;;11.16;100.00
23446;BME280;11895;48.738;9.320;2023-04-16T12:50:34;99071.97;;;10.99;100.00
23446;BME280;11895;48.738;9.320;2023-04-16T12:53:02;99075.19;;;11.28;100.00
23446;BME280;11895;48.738;9.320;2023-04-16T12:55:30;99079.09;;;11.41;100.00
23446;BME280;11895;48.738;9.320;2023-04-16T12:57:57;99079.72;;;11.67;100.00
23446;BME280;11895;48.738;9.320;2023-04-16T13:00:24;99080.97;;;11.39;100.00
23446;BME280;11895;48.738;9.320;2023-04-16T13:02:52;99076.47;;;11.58;100.00
23446;BME280;11895;48.738;9.320;2023-04-16T13:05:20;99079.94;;;11.23;100.00
23446;BME280;11895;48.738;9.320;2023-04-16T13:07:47;99073.97;;;11.35;100.00
23446;BME280;11895;48.738;9.320;2023-04-16T13:10:14;99072.56;;;11.26;100.00
23446;BME280;11895;48.738;9.320;2023-04-16T13:12:42;99080.63;;;11.47;100.00
23446;BME280;11895;48.738;9.320;2023-04-16T13:15:10;99072.09;;;11.37;100.00
23446;BME280;11895;48.738;9.320;2023-04-16T13:17:38;99075.78;;;11.35;100.00
23446;BME280;11895;48.738;9.320;2023-04-16T13:20:06;99074.94;;;11.14;100.00
23446;BME280;11895;48.738;9.320;2023-04-16T13:22:33;99077.19;;;11.04;100.00
23446;BME280;11895;48.738;9.320;2023-04-16T13:25:01;99073.31;;;11.10;100.00
23446;BME280;11895;48.738;9.320;2023-04-16T13:27:29;99077.09;;;11.05;100.00
23446;BME280;11895;48.738;9.320;2023-04-16T13:29:58;99078.78;;;11.08;100.00
23446;BME280;11895;48.738;9.320;2023-04-16T13:32:25;99083.81;;;11.16;100.00
23446;BME280;11895;48.738;9.320;2023-04-16T13:34:53;99080.88;;;11.01;100.00
23446;BME280;11895;48.738;9.320;2023-04-16T13:37:21;99080.34;;;10.93;100.00